Sosnowiec, Poland
Current Conditions -  °F | °C
As of 6:00 PM on Friday 24 Oct 2014 (Local Time) from EPKT Reporting Station
Broken Clouds Broken Clouds  
Wind Chill: 31°   Ceiling: 1700
Heat Index: 37°   Visibility: 6mi
Dew Point: 34°   Wind: 8mph
Humidity: 87%   Direction: 80°E
Pressure: 30.27"   Gusts: NA
Location:  50.28°N, 19.12°E
Report Text: EPKT 241600Z 08007KT 9999 BKN017 03/01 Q1025
Loading
Personal Weather Stations






























Interactive Weather Map
Tropical Storm Tracking
New forecast layout! Learn more

10-Day Weather Forecast

Advertisements
Track Severe Weather on mobile